createdAt,value
2018-05-23T00:00:12.728Z,4.50
2018-05-23T00:02:41.083Z,4.60
2018-05-23T00:05:09.410Z,4.73
2018-05-23T00:07:37.755Z,5.00
2018-05-23T00:10:06.087Z,5.63
2018-05-23T00:12:34.423Z,4.73
2018-05-23T00:15:02.750Z,4.83
2018-05-23T00:17:31.109Z,4.53
2018-05-23T00:19:59.432Z,4.20
2018-05-23T00:22:27.748Z,4.27
2018-05-23T00:24:56.093Z,4.23
2018-05-23T00:27:24.416Z,4.67
2018-05-23T00:29:52.761Z,5.00
2018-05-23T00:32:21.085Z,5.60
2018-05-23T00:34:49.432Z,4.20
2018-05-23T00:37:17.757Z,4.37
2018-05-23T00:39:46.104Z,4.20
2018-05-23T00:42:14.428Z,5.33
2018-05-23T00:44:42.771Z,4.90
2018-05-23T00:47:11.092Z,3.80
2018-05-23T00:49:39.436Z,4.37
2018-05-23T00:52:07.760Z,5.27
2018-05-23T00:54:36.113Z,4.67
2018-05-23T00:57:04.437Z,4.50
2018-05-23T00:59:32.780Z,5.43
2018-05-23T01:02:01.105Z,4.77
2018-05-23T01:04:29.453Z,5.80
2018-05-23T01:06:57.788Z,5.23
2018-05-23T01:09:26.133Z,4.90
2018-05-23T01:11:54.462Z,5.13
2018-05-23T01:14:22.800Z,5.30
2018-05-23T01:16:51.124Z,5.20
2018-05-23T01:19:19.474Z,4.93
2018-05-23T01:21:47.800Z,4.03
2018-05-23T01:24:16.135Z,4.17
2018-05-23T01:26:44.461Z,4.37
2018-05-23T01:29:12.808Z,4.80
2018-05-23T01:31:41.124Z,4.90
2018-05-23T01:34:09.476Z,4.73
2018-05-23T01:36:37.801Z,5.33
2018-05-23T01:39:06.144Z,5.00
2018-05-23T01:41:34.476Z,5.23
2018-05-23T01:44:02.821Z,5.10
2018-05-23T01:46:31.153Z,4.80
2018-05-23T01:49:11.560Z,4.43
2018-05-23T01:51:39.889Z,4.37
2018-05-23T01:54:08.242Z,5.30
2018-05-23T01:56:36.565Z,4.50
2018-05-23T01:59:04.914Z,3.97
2018-05-23T02:01:33.237Z,3.83
2018-05-23T02:04:01.581Z,4.77
2018-05-23T02:06:29.909Z,4.20
2018-05-23T02:08:58.249Z,4.87
2018-05-23T02:11:26.577Z,4.80
2018-05-23T02:13:54.912Z,4.63
2018-05-23T02:16:23.237Z,4.03
2018-05-23T02:18:51.582Z,5.03
2018-05-23T02:21:19.912Z,4.47
2018-05-23T02:23:48.250Z,4.70
2018-05-23T02:26:16.572Z,3.80
2018-05-23T02:28:44.924Z,4.43
2018-05-23T02:31:13.261Z,3.90
2018-05-23T02:33:41.589Z,4.60
2018-05-23T02:36:09.941Z,3.83
2018-05-23T02:38:38.262Z,3.83
2018-05-23T02:41:06.606Z,3.73
2018-05-23T02:43:34.921Z,4.17
2018-05-23T02:46:03.276Z,4.67
2018-05-23T02:48:31.597Z,4.47
2018-05-23T02:50:59.946Z,4.40
2018-05-23T02:53:28.264Z,4.60
2018-05-23T02:55:56.608Z,4.60
2018-05-23T02:58:24.932Z,5.00
2018-05-23T03:00:53.281Z,3.93
2018-05-23T03:03:21.609Z,4.57
2018-05-23T03:05:49.961Z,4.30
2018-05-23T03:08:18.293Z,4.50
2018-05-23T03:10:46.644Z,4.10
2018-05-23T03:13:14.968Z,4.03
2018-05-23T03:15:43.309Z,4.40
2018-05-23T03:18:11.649Z,4.07
2018-05-23T03:20:39.997Z,3.93
2018-05-23T03:23:08.312Z,3.70
2018-05-23T03:25:36.652Z,3.90
2018-05-23T03:28:04.973Z,3.83
2018-05-23T03:30:33.312Z,3.90
2018-05-23T03:33:01.640Z,5.60
2018-05-23T03:35:29.980Z,4.00
2018-05-23T03:37:58.331Z,4.80
2018-05-23T03:40:26.672Z,4.23
2018-05-23T03:42:55.000Z,5.17
2018-05-23T03:45:23.348Z,4.33
2018-05-23T03:47:51.668Z,3.83
2018-05-23T03:50:20.013Z,4.30
2018-05-23T03:52:48.341Z,3.87
2018-05-23T03:55:16.742Z,4.97
2018-05-23T03:57:45.017Z,3.40
2018-05-23T04:00:25.177Z,4.50
2018-05-23T04:03:06.095Z,4.17
2018-05-23T04:05:46.029Z,3.87
2018-05-23T04:08:14.364Z,4.33
2018-05-23T04:10:42.712Z,3.67
2018-05-23T04:13:11.035Z,3.73
2018-05-23T04:15:39.376Z,4.00
2018-05-23T04:18:07.692Z,4.23
2018-05-23T04:20:36.436Z,4.10
2018-05-23T04:23:04.759Z,4.33
2018-05-23T04:25:33.104Z,3.63
2018-05-23T04:28:01.429Z,4.60
2018-05-23T04:30:29.773Z,4.70
2018-05-23T04:32:58.107Z,4.57
2018-05-23T04:35:26.452Z,4.13
2018-05-23T04:37:54.776Z,5.00
2018-05-23T04:40:23.121Z,3.80
2018-05-23T04:42:51.446Z,3.90
2018-05-23T04:45:19.792Z,3.80
2018-05-23T04:47:48.116Z,4.23
2018-05-23T04:50:16.481Z,4.37
2018-05-23T04:52:44.804Z,4.40
2018-05-23T04:55:13.152Z,4.75
2018-05-23T04:57:41.499Z,4.05
2018-05-23T05:00:09.845Z,4.60
2018-05-23T05:02:38.167Z,4.10
2018-05-23T05:05:06.490Z,4.43
2018-05-23T05:07:34.845Z,5.20
2018-05-23T05:10:03.295Z,3.80
2018-05-23T05:12:31.532Z,4.07
2018-05-23T05:14:59.861Z,4.45
2018-05-23T05:17:28.205Z,3.80
2018-05-23T05:19:56.546Z,4.30
2018-05-23T05:22:25.716Z,4.15
2018-05-23T05:24:54.066Z,4.27
2018-05-23T05:27:22.419Z,4.47
2018-05-23T05:29:50.745Z,3.65
2018-05-23T05:32:19.101Z,3.58
2018-05-23T05:34:47.442Z,4.07
2018-05-23T05:37:15.792Z,4.18
2018-05-23T05:39:44.120Z,4.30
2018-05-23T05:42:12.527Z,3.63
2018-05-23T05:44:40.865Z,4.10
2018-05-23T05:47:09.222Z,4.50
2018-05-23T05:49:37.560Z,3.90
2018-05-23T05:52:05.922Z,3.93
2018-05-23T05:54:34.250Z,3.53
2018-05-23T05:57:02.596Z,4.20
2018-05-23T05:59:30.920Z,4.40
2018-05-23T06:02:00.026Z,4.40
2018-05-23T06:04:28.357Z,4.20
2018-05-23T06:06:56.694Z,4.10
2018-05-23T06:09:25.031Z,4.25
2018-05-23T06:11:53.376Z,5.10
2018-05-23T06:14:21.705Z,3.72
2018-05-23T06:16:50.056Z,5.00
2018-05-23T06:19:18.385Z,4.10
2018-05-23T06:21:46.809Z,5.00
2018-05-23T06:24:15.140Z,4.10
2018-05-23T06:26:43.502Z,3.93
2018-05-23T06:29:11.833Z,3.40
2018-05-23T06:31:40.181Z,3.43
2018-05-23T06:34:08.510Z,3.87
2018-05-23T06:36:36.864Z,4.48
2018-05-23T06:39:05.894Z,4.30
2018-05-23T06:41:34.479Z,4.10
2018-05-23T06:44:02.806Z,3.30
2018-05-23T06:46:31.152Z,3.90
2018-05-23T06:48:59.477Z,3.77
2018-05-23T06:51:27.836Z,3.53
2018-05-23T06:53:56.156Z,3.60
2018-05-23T06:56:24.518Z,3.95
2018-05-23T06:58:52.856Z,3.70
2018-05-23T07:01:22.181Z,4.10
2018-05-23T07:03:50.519Z,4.40
2018-05-23T07:06:18.854Z,5.17
2018-05-23T07:08:47.210Z,4.03
2018-05-23T07:11:15.598Z,3.30
2018-05-23T07:13:43.884Z,4.03
2018-05-23T07:16:12.218Z,4.18
2018-05-23T07:18:40.572Z,3.70
2018-05-23T07:21:08.901Z,4.20
2018-05-23T07:23:37.257Z,3.90
2018-05-23T07:26:05.584Z,4.70
2018-05-23T07:28:33.938Z,4.10
2018-05-23T07:31:02.265Z,4.27
2018-05-23T07:33:30.656Z,4.30
2018-05-23T07:35:58.980Z,4.43
2018-05-23T07:38:27.417Z,3.97
2018-05-23T07:40:55.649Z,4.63
2018-05-23T07:43:24.003Z,4.57
2018-05-23T07:45:52.396Z,4.20
2018-05-23T07:48:20.678Z,4.20
2018-05-23T07:50:49.005Z,4.00
2018-05-23T07:53:17.361Z,5.00
2018-05-23T07:55:45.689Z,4.13
2018-05-23T07:58:14.039Z,4.57
2018-05-23T08:00:42.384Z,4.03
2018-05-23T08:03:10.732Z,4.27
2018-05-23T08:05:39.061Z,3.63
2018-05-23T08:08:07.413Z,4.67
2018-05-23T08:10:35.733Z,4.63
2018-05-23T08:13:04.092Z,5.47
2018-05-23T08:15:32.433Z,4.53
2018-05-23T08:18:00.793Z,4.37
2018-05-23T08:20:29.121Z,5.17
2018-05-23T08:22:57.484Z,5.37
2018-05-23T08:25:25.809Z,4.70
2018-05-23T08:27:54.160Z,3.93
2018-05-23T08:30:22.497Z,4.70
2018-05-23T08:32:50.851Z,5.30
2018-05-23T08:35:19.172Z,4.97
2018-05-23T08:37:47.524Z,5.10
2018-05-23T08:40:15.848Z,4.53
2018-05-23T08:42:44.201Z,4.67
2018-05-23T08:45:12.524Z,4.60
2018-05-23T08:47:40.881Z,4.30
2018-05-23T08:50:09.214Z,4.37
2018-05-23T08:52:37.568Z,4.50
2018-05-23T08:55:05.905Z,4.03
2018-05-23T08:57:34.260Z,4.23
2018-05-23T09:00:02.598Z,4.10
2018-05-23T09:02:30.952Z,4.30
2018-05-23T09:04:59.329Z,4.67
2018-05-23T09:07:27.626Z,4.87
2018-05-23T09:09:55.981Z,3.93
2018-05-23T09:12:24.397Z,4.20
2018-05-23T09:14:52.656Z,4.00
2018-05-23T09:17:20.997Z,4.53
2018-05-23T09:19:49.350Z,4.53
2018-05-23T09:22:17.677Z,3.40
2018-05-23T09:24:46.025Z,3.53
2018-05-23T09:27:14.353Z,3.80
2018-05-23T09:29:42.701Z,3.10
2018-05-23T09:32:11.105Z,3.53
2018-05-23T09:34:39.377Z,3.70
2018-05-23T09:37:07.721Z,3.90
2018-05-23T09:39:36.059Z,3.63
2018-05-23T09:42:04.384Z,3.30
2018-05-23T09:44:32.733Z,3.73
2018-05-23T09:47:01.066Z,4.10
2018-05-23T09:49:29.412Z,3.27
2018-05-23T09:51:57.737Z,3.27
2018-05-23T09:54:26.088Z,3.33
2018-05-23T09:56:54.410Z,3.27
2018-05-23T09:59:22.761Z,3.80
2018-05-23T10:01:51.093Z,3.50
2018-05-23T10:04:19.445Z,3.97
2018-05-23T10:06:47.769Z,3.00
2018-05-23T10:09:16.120Z,4.20
2018-05-23T10:11:44.449Z,3.80
2018-05-23T10:14:12.816Z,2.80
2018-05-23T10:16:41.125Z,3.70
2018-05-23T10:19:09.473Z,3.37
2018-05-23T10:21:37.805Z,3.67
2018-05-23T10:24:06.150Z,3.27
2018-05-23T10:26:34.486Z,3.60
2018-05-23T10:29:02.836Z,3.53
2018-05-23T10:31:31.157Z,3.00
2018-05-23T10:33:59.506Z,3.20
2018-05-23T10:36:27.837Z,3.60
2018-05-23T10:38:56.275Z,3.10
2018-05-23T10:41:24.529Z,3.40
2018-05-23T10:43:52.876Z,2.90
2018-05-23T10:46:21.281Z,3.53
2018-05-23T10:48:49.557Z,3.47
2018-05-23T10:51:17.885Z,3.90
2018-05-23T10:53:46.232Z,2.93
2018-05-23T10:56:14.566Z,3.40
2018-05-23T10:58:42.917Z,3.20
2018-05-23T11:01:11.321Z,2.97
2018-05-23T11:03:39.876Z,3.63
2018-05-23T11:06:08.217Z,3.87
2018-05-23T11:08:36.657Z,3.27
2018-05-23T11:11:05.077Z,2.90
2018-05-23T11:13:33.412Z,3.03
2018-05-23T11:16:01.931Z,3.25
2018-05-23T11:18:30.346Z,3.13
2018-05-23T11:20:58.724Z,2.70
2018-05-23T11:23:27.064Z,3.40
2018-05-23T11:25:55.412Z,2.87
2018-05-23T11:28:23.736Z,3.10
2018-05-23T11:30:52.093Z,3.20
2018-05-23T11:33:20.416Z,2.50
2018-05-23T11:35:48.848Z,2.43
2018-05-23T11:38:17.106Z,2.80
2018-05-23T11:40:46.064Z,3.08
2018-05-23T11:43:14.399Z,3.50
2018-05-23T11:45:42.748Z,3.17
2018-05-23T11:48:28.088Z,2.90
2018-05-23T11:50:56.444Z,2.70
2018-05-23T11:53:24.767Z,3.13
2018-05-23T11:55:53.121Z,2.97
2018-05-23T11:58:21.443Z,2.70
2018-05-23T12:00:49.798Z,2.87
2018-05-23T12:03:18.115Z,2.97
2018-05-23T12:05:46.469Z,3.10
2018-05-23T12:08:14.797Z,2.95
2018-05-23T12:10:43.573Z,2.25
2018-05-23T12:13:11.888Z,2.80
2018-05-23T12:15:40.241Z,2.93
2018-05-23T12:18:08.560Z,2.40
2018-05-23T12:20:36.916Z,3.03
2018-05-23T12:23:05.242Z,2.92
2018-05-23T12:25:33.594Z,3.30
2018-05-23T12:28:01.925Z,2.50
2018-05-23T12:30:31.084Z,2.30
2018-05-23T12:32:59.409Z,2.87
2018-05-23T12:35:27.760Z,3.03
2018-05-23T12:37:56.089Z,3.13
2018-05-23T12:40:24.435Z,2.60
2018-05-23T12:42:52.768Z,2.53
2018-05-23T12:45:21.116Z,2.77
2018-05-23T12:47:49.454Z,3.00
2018-05-23T12:50:18.824Z,2.37
2018-05-23T12:52:47.148Z,3.10
2018-05-23T12:55:15.492Z,2.30
2018-05-23T12:57:43.816Z,3.03
2018-05-23T13:00:12.160Z,2.73
2018-05-23T13:02:40.488Z,3.07
2018-05-23T13:05:09.181Z,2.73
2018-05-23T13:07:37.575Z,3.07
2018-05-23T13:10:05.928Z,3.20
2018-05-23T13:12:34.362Z,2.60
2018-05-23T13:15:02.604Z,2.70
2018-05-23T13:17:30.928Z,2.60
2018-05-23T13:19:59.272Z,3.22
2018-05-23T13:22:27.597Z,2.85
2018-05-23T13:24:55.920Z,2.42
2018-05-23T13:27:24.268Z,2.57
2018-05-23T13:29:53.137Z,3.23
2018-05-23T13:32:21.481Z,3.17
2018-05-23T13:34:49.813Z,3.10
2018-05-23T13:37:18.152Z,2.62
2018-05-23T13:39:46.485Z,2.65
2018-05-23T13:42:14.836Z,2.77
2018-05-23T13:44:43.165Z,2.65
2018-05-23T13:47:11.706Z,3.20
2018-05-23T13:49:40.032Z,2.40
2018-05-23T13:52:08.381Z,2.33
2018-05-23T13:54:36.880Z,3.37
2018-05-23T13:57:05.387Z,3.30
2018-05-23T13:59:33.729Z,2.53
2018-05-23T14:02:02.105Z,2.77
2018-05-23T14:04:30.465Z,3.20
2018-05-23T14:06:59.447Z,2.87
2018-05-23T14:09:27.965Z,2.80
2018-05-23T14:11:56.476Z,2.60
2018-05-23T14:14:24.987Z,3.03
2018-05-23T14:16:53.459Z,2.80
2018-05-23T14:19:22.052Z,2.70
2018-05-23T14:21:50.358Z,3.17
2018-05-23T14:24:18.699Z,2.77
2018-05-23T14:26:47.340Z,2.50
2018-05-23T14:29:15.897Z,4.17
2018-05-23T14:31:44.459Z,2.65
2018-05-23T14:34:12.854Z,3.40
2018-05-23T14:36:41.357Z,2.83
2018-05-23T14:39:10.569Z,3.00
2018-05-23T14:41:38.908Z,2.63
2018-05-23T14:44:07.233Z,2.90
2018-05-23T14:46:35.576Z,2.40
2018-05-23T14:49:04.001Z,2.62
2018-05-23T14:51:32.353Z,2.40
2018-05-23T14:54:00.677Z,2.60
2018-05-23T14:56:29.020Z,2.50
2018-05-23T14:58:58.214Z,3.12
2018-05-23T15:01:26.560Z,2.60
2018-05-23T15:03:54.884Z,2.20
2018-05-23T15:06:23.227Z,2.87
2018-05-23T15:08:51.557Z,2.53
2018-05-23T15:11:19.913Z,2.83
2018-05-23T15:13:48.237Z,2.17
2018-05-23T15:16:16.584Z,2.07
2018-05-23T15:18:44.914Z,2.40
2018-05-23T15:21:13.259Z,3.63
2018-05-23T15:23:41.588Z,2.30
2018-05-23T15:26:09.949Z,2.53
2018-05-23T15:28:38.524Z,2.12
2018-05-23T15:31:06.855Z,2.37
2018-05-23T15:33:35.200Z,2.37
2018-05-23T15:36:03.525Z,2.17
2018-05-23T15:38:31.868Z,2.30
2018-05-23T15:41:00.215Z,1.85
2018-05-23T15:43:28.551Z,2.00
2018-05-23T15:45:56.877Z,2.00
2018-05-23T15:48:25.234Z,2.90
2018-05-23T15:50:53.564Z,1.90
2018-05-23T15:53:21.909Z,2.43
2018-05-23T15:55:50.465Z,2.12
2018-05-23T15:58:18.812Z,2.03
2018-05-23T16:00:47.140Z,2.50
2018-05-23T16:03:15.488Z,1.87
2018-05-23T16:05:43.813Z,2.40
2018-05-23T16:08:12.156Z,1.90
2018-05-23T16:10:40.485Z,2.60
2018-05-23T16:13:08.830Z,2.07
2018-05-23T16:15:38.233Z,2.15
2018-05-23T16:18:06.592Z,2.07
2018-05-23T16:20:34.952Z,1.93
2018-05-23T16:23:03.269Z,2.20
2018-05-23T16:25:31.595Z,2.33
2018-05-23T16:27:59.950Z,2.28
2018-05-23T16:30:28.284Z,2.10
2018-05-23T16:32:56.628Z,2.10
2018-05-23T16:35:25.104Z,2.12
2018-05-23T16:37:53.448Z,2.30
2018-05-23T16:40:22.490Z,2.40
2018-05-23T16:42:50.904Z,2.67
2018-05-23T16:45:20.044Z,3.10
2018-05-23T16:47:48.405Z,2.58
2018-05-23T16:50:16.738Z,2.30
2018-05-23T16:52:45.096Z,2.10
2018-05-23T16:55:13.420Z,2.07
2018-05-23T16:57:41.777Z,2.27
2018-05-23T17:00:10.101Z,2.60
2018-05-23T17:02:38.506Z,2.33
2018-05-23T17:05:06.817Z,3.00
2018-05-23T17:07:35.164Z,2.80
2018-05-23T17:10:03.489Z,2.58
2018-05-23T17:12:31.889Z,1.77
2018-05-23T17:15:00.168Z,2.00
2018-05-23T17:17:28.523Z,2.60
2018-05-23T17:19:56.862Z,2.15
2018-05-23T17:22:25.197Z,2.40
2018-05-23T17:24:53.528Z,2.53
2018-05-23T17:27:21.953Z,2.87
2018-05-23T17:29:50.218Z,2.60
2018-05-23T17:32:18.535Z,2.33
2018-05-23T17:34:47.204Z,2.50
2018-05-23T17:37:15.528Z,2.17
2018-05-23T17:39:43.875Z,2.20
2018-05-23T17:42:12.200Z,2.70
2018-05-23T17:44:40.552Z,2.50
2018-05-23T17:47:08.887Z,2.40
2018-05-23T17:49:37.228Z,1.90
2018-05-23T17:52:05.555Z,1.93
2018-05-23T17:54:33.914Z,2.60
2018-05-23T17:57:02.308Z,4.03
2018-05-23T17:59:30.589Z,2.00
2018-05-23T18:01:58.913Z,2.63
2018-05-23T18:04:27.257Z,2.50
2018-05-23T18:06:55.589Z,2.40
2018-05-23T18:09:23.931Z,2.17
2018-05-23T18:11:52.261Z,2.57
2018-05-23T18:14:21.464Z,2.50
2018-05-23T18:16:49.833Z,2.57
2018-05-23T18:19:18.144Z,2.27
2018-05-23T18:21:46.469Z,2.50
2018-05-23T18:24:14.821Z,2.03
2018-05-23T18:26:43.152Z,2.37
2018-05-23T18:29:11.492Z,2.07
2018-05-23T18:31:39.824Z,1.70
2018-05-23T18:34:08.183Z,2.37
2018-05-23T18:36:36.509Z,2.03
2018-05-23T18:39:04.853Z,2.60
2018-05-23T18:41:33.180Z,2.23
2018-05-23T18:44:01.520Z,2.60
2018-05-23T18:46:29.856Z,2.13
2018-05-23T18:48:58.257Z,2.07
2018-05-23T18:51:26.596Z,1.80
2018-05-23T18:53:54.985Z,2.20
2018-05-23T18:56:23.387Z,2.17
2018-05-23T18:58:51.733Z,2.10
2018-05-23T19:01:20.084Z,2.33
2018-05-23T19:03:48.513Z,2.28
2018-05-23T19:06:16.942Z,2.05
2018-05-23T19:08:45.349Z,1.87
2018-05-23T19:11:13.721Z,2.00
2018-05-23T19:13:42.070Z,1.90
2018-05-23T19:16:10.402Z,2.17
2018-05-23T19:18:38.749Z,2.30
2018-05-23T19:21:07.155Z,1.70
2018-05-23T19:23:35.616Z,1.70
2018-05-23T19:26:04.042Z,1.87
2018-05-23T19:28:32.383Z,1.95
2018-05-23T19:31:00.716Z,1.83
2018-05-23T19:33:29.056Z,2.43
2018-05-23T19:35:57.429Z,2.73
2018-05-23T19:38:25.830Z,1.70
2018-05-23T19:40:54.220Z,2.23
2018-05-23T19:43:22.573Z,1.50
2018-05-23T19:45:50.995Z,1.77
2018-05-23T19:48:19.390Z,1.70
2018-05-23T19:50:48.064Z,1.50
2018-05-23T19:53:16.401Z,2.30
2018-05-23T19:55:44.753Z,1.90
2018-05-23T19:58:13.793Z,1.70
2018-05-23T20:00:42.148Z,2.05
2018-05-23T20:03:10.485Z,2.30
2018-05-23T20:05:38.840Z,2.17
2018-05-23T20:08:07.312Z,2.00
2018-05-23T20:10:35.520Z,2.10
2018-05-23T20:13:03.856Z,1.70
2018-05-23T20:15:32.201Z,2.30
2018-05-23T20:18:00.536Z,2.40
2018-05-23T20:20:28.884Z,2.23
2018-05-23T20:22:57.220Z,2.20
2018-05-23T20:25:25.568Z,2.20
2018-05-23T20:27:53.907Z,1.97
2018-05-23T20:30:22.263Z,2.00
2018-05-23T20:32:50.592Z,1.67
2018-05-23T20:35:18.954Z,1.73
2018-05-23T20:37:47.280Z,2.40
2018-05-23T20:40:15.624Z,1.60
2018-05-23T20:42:43.961Z,2.07
2018-05-23T20:45:12.312Z,2.03
2018-05-23T20:47:40.680Z,2.43
2018-05-23T20:50:08.984Z,1.85
2018-05-23T20:52:37.320Z,1.70
2018-05-23T20:55:05.666Z,1.80
2018-05-23T20:57:33.985Z,1.93
2018-05-23T21:00:02.332Z,2.57
2018-05-23T21:02:30.652Z,2.10
2018-05-23T21:04:58.996Z,2.87
2018-05-23T21:07:27.328Z,1.77
2018-05-23T21:09:55.682Z,1.67
2018-05-23T21:12:24.000Z,1.60
2018-05-23T21:14:52.356Z,1.87
2018-05-23T21:17:20.688Z,2.47
2018-05-23T21:19:49.041Z,1.98
2018-05-23T21:22:17.436Z,1.50
2018-05-23T21:24:45.768Z,2.10
2018-05-23T21:27:14.111Z,2.00
2018-05-23T21:29:42.466Z,2.03
2018-05-23T21:32:10.797Z,1.50
2018-05-23T21:34:39.243Z,2.30
2018-05-23T21:37:07.529Z,1.60
2018-05-23T21:39:35.868Z,1.63
2018-05-23T21:42:04.221Z,1.70
2018-05-23T21:44:32.893Z,1.60
2018-05-23T21:47:01.262Z,1.50
2018-05-23T21:49:29.583Z,1.83
2018-05-23T21:51:57.941Z,2.30
2018-05-23T21:54:26.306Z,1.80
2018-05-23T21:56:54.652Z,1.67
2018-05-23T21:59:22.971Z,1.70
2018-05-23T22:01:51.325Z,1.90
2018-05-23T22:04:19.781Z,1.85
2018-05-23T22:06:48.137Z,2.00
2018-05-23T22:09:16.453Z,1.80
2018-05-23T22:11:44.795Z,1.87
2018-05-23T22:14:13.117Z,1.50
2018-05-23T22:16:41.469Z,1.83
2018-05-23T22:19:09.798Z,1.70
2018-05-23T22:21:38.136Z,1.40
2018-05-23T22:24:06.462Z,1.80
2018-05-23T22:26:34.808Z,2.00
2018-05-23T22:29:03.124Z,2.50
2018-05-23T22:31:31.468Z,2.63
2018-05-23T22:33:59.792Z,2.00
2018-05-23T22:36:28.133Z,2.00
2018-05-23T22:38:56.451Z,2.00
2018-05-23T22:41:24.792Z,1.83
2018-05-23T22:43:53.114Z,1.93
2018-05-23T22:46:21.448Z,1.80
2018-05-23T22:48:49.767Z,1.80
2018-05-23T22:51:18.109Z,1.80
2018-05-23T22:53:46.429Z,1.73
2018-05-23T22:56:14.773Z,1.87
2018-05-23T22:58:43.136Z,1.83
2018-05-23T23:01:11.480Z,1.70
2018-05-23T23:03:39.802Z,1.80
2018-05-23T23:06:08.139Z,1.43
2018-05-23T23:08:36.455Z,1.90
2018-05-23T23:11:04.796Z,2.37
2018-05-23T23:13:33.115Z,2.37
2018-05-23T23:16:01.461Z,1.77
2018-05-23T23:18:29.785Z,2.10
2018-05-23T23:20:58.129Z,1.83
2018-05-23T23:23:26.448Z,1.63
2018-05-23T23:25:54.793Z,1.97
2018-05-23T23:28:23.112Z,2.20
2018-05-23T23:30:51.768Z,1.97
2018-05-23T23:33:20.089Z,1.70
2018-05-23T23:35:48.408Z,1.70
2018-05-23T23:38:16.753Z,1.77
2018-05-23T23:40:45.077Z,1.90
2018-05-23T23:43:13.412Z,1.63
2018-05-23T23:45:41.741Z,1.57
2018-05-23T23:48:10.076Z,1.87
2018-05-23T23:50:38.401Z,1.90
2018-05-23T23:53:06.740Z,2.07
2018-05-23T23:55:35.054Z,2.67
2018-05-23T23:58:03.398Z,1.90
